Haydock Park, United Kingdom
Current Conditions -  °F | °C
As of 4:50 AM on Tuesday 23 Dec 2014 (Local Time) from EGGP Reporting Station
Broken Clouds Broken Clouds  
Wind Chill: 12°   Ceiling: 1900
Heat Index: 12°   Visibility: 6mi
Dew Point:   Wind: 21mph
Humidity: 77%   Direction: 230°SW
Pressure: 29.83"   Gusts: NA
Location:  53.47°N, 2.62°W
Report Text: EGGP 230450Z 23018KT 9999 BKN019 12/08 Q1010
Loading
Personal Weather Stations






























Interactive Weather Map New forecast layout! Learn more

10-Day Weather Forecast

Advertisements
Track Severe Weather on mobile